Time;durP1;ratioP1;P1;durP2;ratioP2;P2;SDS_P1;SDS_P2;PMS_P1;PMS_P2;Temp;Humidity;BMP_temperature;BMP_pressure;BME280_temperature;BME280_humidity;BME280_pressure;Samples;Min_cycle;Max_cycle;Signal;HPM_P1;HPM_P2
2024/02/08 00:00:10;;;;;;;52.47;33.75;;;;;;;4.13;65.31;92970.28;523854;28;784;-62
2024/02/08 00:00:26;;;;;;;50.50;32.35;;;;;;;4.12;64.85;92968.03;523869;28;809;-62
2024/02/08 00:00:41;;;;;;;51.60;32.40;;;;;;;4.11;65.28;92966.56;523863;28;836;-63
2024/02/08 00:00:57;;;;;;;61.60;36.65;;;;;;;4.11;65.08;92972.03;523845;28;931;-62
2024/02/08 00:01:12;;;;;;;70.03;42.30;;;;;;;4.10;65.35;92962.34;523838;28;753;-63
2024/02/08 00:01:27;;;;;;;69.38;43.38;;;;;;;4.09;65.00;92969.84;523915;28;917;-62
2024/02/08 00:01:43;;;;;;;64.47;39.70;;;;;;;4.11;65.09;92969.31;523827;28;840;-63
2024/02/08 00:01:58;;;;;;;57.63;35.38;;;;;;;4.09;65.18;92966.34;523871;28;804;-63
2024/02/08 00:02:14;;;;;;;55.80;34.67;;;;;;;4.09;65.19;92963.63;523855;28;785;-62
2024/02/08 00:02:29;;;;;;;52.03;33.65;;;;;;;4.09;65.37;92969.84;523802;28;812;-62
2024/02/08 00:02:45;;;;;;;50.07;32.13;;;;;;;4.09;65.41;92966.34;523853;28;876;-62
2024/02/08 00:03:00;;;;;;;50.03;31.67;;;;;;;4.10;64.93;92965.09;523852;28;831;-63
2024/02/08 00:03:15;;;;;;;45.72;29.92;;;;;;;4.04;65.00;92967.91;523983;28;800;-63
2024/02/08 00:03:31;;;;;;;42.90;28.83;;;;;;;3.97;65.53;92960.31;523852;28;820;-63
2024/02/08 00:03:46;;;;;;;41.65;29.15;;;;;;;3.89;65.67;92962.16;523838;28;899;-62
2024/02/08 00:04:02;;;;;;;42.63;28.60;;;;;;;3.86;65.72;92965.91;524610;28;1112;-62
2024/02/08 00:04:17;;;;;;;42.78;27.65;;;;;;;3.84;65.31;92962.97;525931;28;768;-63
2024/02/08 00:04:35;;;;;;;41.67;27.60;;;;;;;3.84;65.78;92958.25;525948;28;836;-63
2024/02/08 00:04:50;;;;;;;43.03;29.10;;;;;;;3.85;65.68;92959.72;525287;28;1301;-62
2024/02/08 00:05:06;;;;;;;49.08;31.98;;;;;;;3.87;65.80;92959.22;523841;28;1078;-63
2024/02/08 00:05:22;;;;;;;51.03;32.75;;;;;;;3.87;66.07;92959.22;523724;28;867;-62
2024/02/08 00:05:37;;;;;;;57.80;35.88;;;;;;;3.86;65.92;92957.72;523822;28;894;-63
2024/02/08 00:05:53;;;;;;;68.77;40.90;;;;;;;3.84;65.83;92955.53;523710;28;1443;-63
2024/02/08 00:06:08;;;;;;;70.55;41.17;;;;;;;3.83;65.82;92956.75;523857;28;871;-63
2024/02/08 00:06:24;;;;;;;63.90;38.17;;;;;;;3.84;65.74;92958.25;523901;28;764;-62
2024/02/08 00:06:39;;;;;;;57.03;35.75;;;;;;;3.76;65.92;92956.63;523721;28;808;-62
2024/02/08 00:06:54;;;;;;;54.37;34.47;;;;;;;3.71;65.76;92958.19;523874;28;768;-63
2024/02/08 00:07:10;;;;;;;52.40;32.10;;;;;;;3.67;66.58;92959.72;523920;28;843;-62
2024/02/08 00:07:26;;;;;;;49.00;29.67;;;;;;;3.60;66.09;92963.03;523873;28;780;-63
2024/02/08 00:07:41;;;;;;;42.17;27.33;;;;;;;3.57;65.86;92962.06;523877;28;1032;-62
2024/02/08 00:07:56;;;;;;;37.70;25.35;;;;;;;3.58;66.21;92962.81;523808;28;855;-62
2024/02/08 00:08:12;;;;;;;38.67;25.50;;;;;;;3.58;66.47;92963.56;523852;28;1037;-63
2024/02/08 00:08:27;;;;;;;39.60;25.50;;;;;;;3.60;65.86;92961.03;523867;28;839;-62
2024/02/08 00:08:43;;;;;;;38.20;24.63;;;;;;;3.65;66.61;92971.16;523861;28;911;-62
2024/02/08 00:09:01;;;;;;;36.80;24.23;;;;;;;3.66;66.11;92963.72;523874;28;843;-62
2024/02/08 00:09:17;;;;;;;35.30;24.27;;;;;;;3.67;66.11;92970.63;523878;28;856;-63
2024/02/08 00:09:32;;;;;;;36.45;25.52;;;;;;;3.69;65.51;92965.41;523756;28;835;-63
2024/02/08 00:09:48;;;;;;;35.97;25.27;;;;;;;3.72;66.50;92956.19;523938;28;836;-62
2024/02/08 00:10:08;;;;;;;35.13;23.65;;;;;;;3.73;65.77;92963.84;523885;28;875;-62
2024/02/08 00:10:23;;;;;;;37.85;24.95;;;;;;;3.64;66.18;92960.75;523781;28;847;-63
2024/02/08 00:10:39;;;;;;;44.00;27.97;;;;;;;3.52;66.59;92962.16;523668;28;863;-62
2024/02/08 00:10:54;;;;;;;55.58;32.40;;;;;;;3.45;66.99;92966.19;523602;28;764;-62
2024/02/08 00:11:09;;;;;;;65.03;37.90;;;;;;;3.42;67.28;92969.22;523694;28;792;-62
2024/02/08 00:11:25;;;;;;;60.83;36.77;;;;;;;3.40;67.39;92958.81;523705;28;792;-62
2024/02/08 00:11:40;;;;;;;54.22;33.33;;;;;;;3.37;66.97;92965.31;523607;28;1917;-62
2024/02/08 00:11:56;;;;;;;56.07;33.93;;;;;;;3.39;67.45;92964.78;523679;28;871;-63
2024/02/08 00:12:11;;;;;;;57.72;33.80;;;;;;;3.33;67.04;92961.38;523596;28;863;-63
2024/02/08 00:12:27;;;;;;;59.30;34.13;;;;;;;3.21;67.72;92962.75;523756;28;760;-63
2024/02/08 00:12:43;;;;;;;66.93;36.05;;;;;;;3.07;68.33;92965.38;523645;28;756;-62
2024/02/08 00:12:58;;;;;;;67.32;37.58;;;;;;;2.97;68.37;92958.78;523661;28;792;-62
2024/02/08 00:13:14;;;;;;;77.97;44.87;;;;;;;2.92;68.66;92959.56;523726;28;784;-63
2024/02/08 00:13:29;;;;;;;109.68;62.00;;;;;;;2.90;69.04;92962.06;523653;28;840;-62
2024/02/08 00:13:45;;;;;;;128.23;73.00;;;;;;;2.92;69.54;92956.13;523582;28;792;-63
2024/02/08 00:14:00;;;;;;;106.90;62.00;;;;;;;2.88;70.08;92964.56;523704;28;772;-62
2024/02/08 00:14:16;;;;;;;76.60;45.67;;;;;;;2.87;70.19;92957.66;523720;28;824;-62
2024/02/08 00:14:31;;;;;;;72.85;41.78;;;;;;;2.85;70.24;92952.00;523637;28;765;-62
2024/02/08 00:14:50;;;;;;;93.27;52.30;;;;;;;2.84;70.85;92955.94;523687;28;781;-62
2024/02/08 00:15:06;;;;;;;111.75;63.63;;;;;;;2.75;70.51;92934.47;523671;28;815;-62
2024/02/08 00:15:22;;;;;;;92.85;56.38;;;;;;;2.93;70.32;92949.41;523677;28;820;-62
2024/02/08 00:15:37;;;;;;;92.73;55.37;;;;;;;2.97;70.52;92950.63;523667;28;752;-63
2024/02/08 00:15:53;;;;;;;93.80;54.10;;;;;;;3.00;70.09;92957.78;523597;28;861;-62
2024/02/08 00:16:11;;;;;;;86.63;49.33;;;;;;;2.87;70.48;92926.94;523646;28;769;-62
2024/02/08 00:16:27;;;;;;;64.93;39.42;;;;;;;3.04;70.79;92955.50;523634;28;864;-62
2024/02/08 00:16:42;;;;;;;68.13;42.50;;;;;;;3.04;70.96;92952.03;523674;28;807;-62
2024/02/08 00:16:58;;;;;;;81.33;47.73;;;;;;;3.03;71.17;92951.28;523648;28;894;-62
2024/02/08 00:17:14;;;;;;;76.30;45.13;;;;;;;3.01;71.38;92953.06;523721;28;835;-62
2024/02/08 00:17:29;;;;;;;71.88;42.97;;;;;;;2.94;71.26;92954.38;523683;28;888;-62
2024/02/08 00:17:47;;;;;;;71.53;41.73;;;;;;;2.93;71.56;92949.41;523663;28;733;-62
2024/02/08 00:18:03;;;;;;;65.07;38.90;;;;;;;2.96;70.69;92948.41;523639;28;895;-63
2024/02/08 00:18:19;;;;;;;61.78;37.20;;;;;;;3.00;71.12;92959.75;523698;28;788;-62
2024/02/08 00:18:36;;;;;;;61.35;36.03;;;;;;;3.04;71.27;92960.97;523554;28;820;-62
2024/02/08 00:18:51;;;;;;;55.78;34.25;;;;;;;3.09;70.41;92953.97;523658;28;848;-62
2024/02/08 00:19:06;;;;;;;54.97;34.50;;;;;;;3.12;70.46;92957.66;523647;28;753;-62
2024/02/08 00:19:22;;;;;;;57.40;35.75;;;;;;;3.01;70.49;92939.44;523581;28;792;-62
2024/02/08 00:19:39;;;;;;;58.30;35.77;;;;;;;3.18;70.23;92958.34;523652;28;895;-62
2024/02/08 00:19:54;;;;;;;57.03;35.05;;;;;;;3.20;70.55;92964.00;523586;28;878;-62
2024/02/08 00:20:10;;;;;;;54.47;34.40;;;;;;;3.23;70.76;92960.28;523662;28;867;-62
2024/02/08 00:20:26;;;;;;;55.70;35.15;;;;;;;3.24;70.14;92954.28;523652;28;821;-62
2024/02/08 00:20:41;;;;;;;58.88;36.65;;;;;;;3.28;70.11;92959.44;523622;28;824;-63
2024/02/08 00:20:57;;;;;;;62.70;38.30;;;;;;;3.27;70.17;92958.00;523665;28;761;-62
2024/02/08 00:21:13;;;;;;;61.38;37.63;;;;;;;3.33;70.01;92958.66;523702;28;850;-63
2024/02/08 00:21:29;;;;;;;59.25;35.92;;;;;;;3.35;70.45;92951.44;523725;28;804;-62
2024/02/08 00:21:45;;;;;;;59.03;35.50;;;;;;;3.38;69.70;92958.59;523749;28;852;-63
2024/02/08 00:22:00;;;;;;;54.53;33.90;;;;;;;3.39;69.65;92957.34;523556;28;844;-62
2024/02/08 00:22:20;;;;;;;51.37;32.70;;;;;;;3.41;69.95;92954.09;523744;28;799;-63
2024/02/08 00:22:35;;;;;;;51.50;33.50;;;;;;;3.43;69.65;92955.06;523628;28;864;-62
2024/02/08 00:22:53;;;;;;;50.77;33.43;;;;;;;3.46;69.40;92953.28;523621;28;1085;-62
2024/02/08 00:23:09;;;;;;;53.60;34.17;;;;;;;3.47;69.57;92952.78;523628;28;828;-63
2024/02/08 00:23:25;;;;;;;53.05;33.47;;;;;;;3.48;69.65;92958.97;523652;28;840;-62
2024/02/08 00:23:40;;;;;;;51.65;31.75;;;;;;;3.50;69.25;92957.22;523632;28;836;-62
2024/02/08 00:23:56;;;;;;;48.43;30.37;;;;;;;3.53;69.57;92956.16;523697;28;772;-63
2024/02/08 00:24:11;;;;;;;50.00;31.90;;;;;;;3.54;69.04;92956.91;523647;28;784;-62
2024/02/08 00:24:29;;;;;;;60.70;37.33;;;;;;;3.55;69.31;92959.13;523653;28;827;-62
2024/02/08 00:24:45;;;;;;;59.25;37.40;;;;;;;3.56;69.03;92954.41;523600;28;843;-62
2024/02/08 00:25:00;;;;;;;62.15;38.20;;;;;;;3.59;68.94;92958.84;523711;28;768;-62
2024/02/08 00:25:16;;;;;;;70.07;42.53;;;;;;;3.60;69.36;92957.56;523714;28;836;-62
2024/02/08 00:25:31;;;;;;;66.50;41.80;;;;;;;3.63;69.36;92962.00;523642;28;851;-63
2024/02/08 00:25:47;;;;;;;68.27;42.23;;;;;;;3.65;68.94;92956.78;523736;28;847;-63
2024/02/08 00:26:03;;;;;;;68.47;41.50;;;;;;;3.65;68.42;92952.06;523809;28;796;-63
2024/02/08 00:26:18;;;;;;;56.85;35.95;;;;;;;3.68;68.64;92953.03;523866;28;816;-62
2024/02/08 00:26:33;;;;;;;56.60;35.03;;;;;;;3.69;68.16;92957.22;523814;28;784;-63
2024/02/08 00:26:49;;;;;;;58.00;35.08;;;;;;;3.71;68.17;92960.16;523739;28;757;-62
2024/02/08 00:27:04;;;;;;;51.90;32.70;;;;;;;3.71;68.17;92957.44;523836;28;792;-62
2024/02/08 00:27:20;;;;;;;64.15;38.08;;;;;;;3.74;67.45;92956.41;523808;28;829;-63
2024/02/08 00:27:36;;;;;;;68.97;38.70;;;;;;;3.74;67.57;92957.16;523819;28;895;-63
2024/02/08 00:27:54;;;;;;;50.95;30.67;;;;;;;3.75;67.81;92957.88;523807;28;960;-62
2024/02/08 00:28:11;;;;;;;35.55;24.40;;;;;;;3.73;67.64;92955.66;523824;28;828;-63
2024/02/08 00:28:27;;;;;;;34.60;22.55;;;;;;;3.73;67.71;92961.13;523852;28;871;-62
2024/02/08 00:28:42;;;;;;;44.75;28.02;;;;;;;3.74;67.58;92959.13;523703;28;792;-63
2024/02/08 00:28:57;;;;;;;51.93;32.43;;;;;;;3.70;68.06;92956.69;523726;28;902;-62
2024/02/08 00:29:13;;;;;;;49.53;31.77;;;;;;;3.63;68.59;92960.03;523853;28;764;-63
2024/02/08 00:29:29;;;;;;;49.63;29.17;;;;;;;3.56;68.36;92959.84;523816;28;769;-63
2024/02/08 00:29:45;;;;;;;51.50;29.67;;;;;;;3.47;68.24;92960.22;523864;28;864;-63
2024/02/08 00:30:01;;;;;;;51.63;31.73;;;;;;;3.40;68.64;92953.34;523817;28;741;-62
2024/02/08 00:30:17;;;;;;;53.22;32.60;;;;;;;3.34;68.90;92954.66;523779;28;859;-62
2024/02/08 00:30:32;;;;;;;50.60;31.77;;;;;;;3.32;68.99;92955.19;523571;28;2365;-63
2024/02/08 00:30:48;;;;;;;42.10;26.70;;;;;;;3.30;68.70;92957.69;523622;28;764;-62
2024/02/08 00:31:04;;;;;;;33.30;22.73;;;;;;;3.25;69.67;92953.03;523672;28;998;-63
2024/02/08 00:31:20;;;;;;;34.78;24.67;;;;;;;3.19;69.12;92957.06;523712;28;824;-63
2024/02/08 00:31:35;;;;;;;40.25;26.98;;;;;;;3.15;69.29;92960.09;523506;28;1918;-63
2024/02/08 00:31:51;;;;;;;41.17;27.33;;;;;;;3.14;69.48;92960.63;523603;28;741;-62
2024/02/08 00:32:06;;;;;;;45.72;29.52;;;;;;;3.14;69.63;92955.16;523747;28;868;-62
2024/02/08 00:32:22;;;;;;;48.08;30.20;;;;;;;3.15;70.36;92954.63;523607;28;805;-62
2024/02/08 00:32:37;;;;;;;47.40;29.87;;;;;;;3.19;69.51;92954.34;523666;28;827;-63
2024/02/08 00:32:53;;;;;;;46.60;29.63;;;;;;;3.19;69.74;92955.09;523557;28;768;-62
2024/02/08 00:33:08;;;;;;;47.45;29.85;;;;;;;3.22;69.74;92958.78;523686;28;859;-63
2024/02/08 00:33:25;;;;;;;48.37;30.63;;;;;;;3.24;69.93;92956.28;523700;28;788;-63
2024/02/08 00:33:41;;;;;;;48.15;31.13;;;;;;;3.29;69.25;92958.22;523648;28;903;-62
2024/02/08 00:33:56;;;;;;;46.85;30.20;;;;;;;3.31;69.39;92963.91;523725;28;797;-63
2024/02/08 00:34:11;;;;;;;43.87;29.07;;;;;;;3.32;69.22;92962.63;523606;28;840;-63
2024/02/08 00:34:27;;;;;;;43.00;27.45;;;;;;;3.35;68.94;92956.91;523578;28;833;-63
2024/02/08 00:34:42;;;;;;;38.67;24.87;;;;;;;3.36;68.83;92963.81;523551;28;1099;-63
2024/02/08 00:35:03;;;;;;;36.80;24.65;;;;;;;3.33;69.23;92961.38;523660;28;793;-62
2024/02/08 00:35:19;;;;;;;31.38;23.27;;;;;;;3.21;69.28;92958.03;523729;28;951;-63
2024/02/08 00:35:35;;;;;;;32.95;22.38;;;;;;;3.15;69.70;92956.63;523739;28;943;-62
2024/02/08 00:35:50;;;;;;;35.25;22.05;;;;;;;3.07;69.22;92959.91;523752;28;922;-62
2024/02/08 00:36:06;;;;;;;33.27;21.60;;;;;;;3.06;69.82;92952.25;523873;28;740;-63
2024/02/08 00:36:21;;;;;;;32.00;21.33;;;;;;;3.05;69.57;92954.25;523787;28;793;-62
2024/02/08 00:36:37;;;;;;;32.53;20.67;;;;;;;3.06;69.82;92963.16;523820;28;776;-62
2024/02/08 00:36:52;;;;;;;30.50;20.20;;;;;;;3.06;69.18;92955.72;523803;28;756;-62
2024/02/08 00:37:08;;;;;;;28.75;19.70;;;;;;;3.08;69.43;92960.66;523784;28;793;-62
2024/02/08 00:37:23;;;;;;;29.37;18.90;;;;;;;3.11;69.60;92956.91;523893;28;792;-62
2024/02/08 00:37:39;;;;;;;30.57;18.67;;;;;;;3.12;69.17;92958.38;523835;28;843;-62
2024/02/08 00:37:54;;;;;;;30.55;18.65;;;;;;;3.11;68.90;92965.09;523818;28;852;-63
2024/02/08 00:38:09;;;;;;;28.87;18.53;;;;;;;3.12;69.32;92963.13;523879;28;804;-63
2024/02/08 00:38:25;;;;;;;26.52;17.85;;;;;;;3.11;69.13;92965.09;523804;28;804;-62
2024/02/08 00:38:43;;;;;;;25.73;17.27;;;;;;;3.13;68.77;92968.06;523791;28;805;-62
2024/02/08 00:38:58;;;;;;;25.40;17.08;;;;;;;3.16;69.37;92964.31;523828;28;1082;-62
2024/02/08 00:39:13;;;;;;;24.67;16.73;;;;;;;3.17;69.18;92963.03;523897;28;844;-63
2024/02/08 00:39:30;;;;;;;25.48;16.55;;;;;;;3.20;68.56;92958.56;523859;28;772;-63
2024/02/08 00:39:46;;;;;;;26.23;16.92;;;;;;;3.01;68.67;92931.25;523846;28;934;-62
2024/02/08 00:40:01;;;;;;;27.83;17.83;;;;;;;3.25;68.72;92963.94;523691;28;937;-63
2024/02/08 00:40:17;;;;;;;26.33;18.17;;;;;;;3.29;68.55;92952.75;523660;28;741;-63
2024/02/08 00:40:33;;;;;;;24.83;18.73;;;;;;;3.32;68.55;92962.63;523724;28;852;-62
2024/02/08 00:40:51;;;;;;;25.63;18.67;;;;;;;3.33;68.26;92959.41;523644;28;781;-62
2024/02/08 00:41:06;;;;;;;30.70;20.00;;;;;;;3.36;68.08;92954.88;523732;28;855;-62
2024/02/08 00:41:23;;;;;;;32.50;21.00;;;;;;;3.36;68.69;92950.16;523576;28;923;-62
2024/02/08 00:41:38;;;;;;;26.48;18.83;;;;;;;3.37;68.19;92956.38;523609;28;831;-62
2024/02/08 00:41:57;;;;;;;24.75;18.02;;;;;;;3.37;68.39;92959.84;523648;28;840;-62
2024/02/08 00:42:13;;;;;;;25.38;18.55;;;;;;;3.39;68.41;92959.31;523631;28;906;-62
2024/02/08 00:42:28;;;;;;;27.48;19.30;;;;;;;3.41;68.18;92967.72;523656;28;839;-62
2024/02/08 00:42:47;;;;;;;28.40;19.23;;;;;;;3.41;68.32;92959.53;523588;28;769;-63
2024/02/08 00:43:06;;;;;;;25.40;18.20;;;;;;;3.42;68.06;92966.50;523597;28;949;-62
2024/02/08 00:43:21;;;;;;;25.63;18.35;;;;;;;3.42;68.31;92961.03;523685;28;840;-62
2024/02/08 00:43:39;;;;;;;28.02;18.58;;;;;;;3.42;68.43;92966.50;523700;28;844;-63
2024/02/08 00:43:55;;;;;;;26.88;17.92;;;;;;;3.43;68.31;92957.03;523641;28;851;-62
2024/02/08 00:44:10;;;;;;;24.50;17.70;;;;;;;3.43;68.12;92957.78;523567;28;788;-62
2024/02/08 00:44:27;;;;;;;26.42;18.05;;;;;;;3.41;68.24;92965.00;523680;28;891;-62
2024/02/08 00:44:43;;;;;;;27.50;18.15;;;;;;;3.36;68.79;92963.81;523520;28;914;-62
2024/02/08 00:44:58;;;;;;;29.27;17.53;;;;;;;3.27;68.93;92966.19;523690;28;869;-62
2024/02/08 00:45:21;;;;;;;33.55;17.17;;;;;;;3.15;68.79;92956.63;523648;28;860;-62
2024/02/08 00:45:37;;;;;;;26.42;16.80;;;;;;;3.03;69.24;92959.47;523573;28;930;-63
2024/02/08 00:45:54;;;;;;;26.20;17.30;;;;;;;2.95;69.38;92953.13;523546;28;768;-62
2024/02/08 00:46:09;;;;;;;26.08;17.55;;;;;;;2.91;70.30;92960.84;523719;28;875;-62
2024/02/08 00:46:25;;;;;;;27.02;17.50;;;;;;;2.90;70.44;92962.06;523655;28;891;-62
2024/02/08 00:46:40;;;;;;;26.17;18.03;;;;;;;2.93;70.83;92965.78;523650;28;800;-62
2024/02/08 00:46:56;;;;;;;25.48;18.67;;;;;;;2.95;70.16;92955.84;523531;28;789;-62
2024/02/08 00:47:11;;;;;;;27.87;20.27;;;;;;;3.01;70.29;92958.53;523644;28;780;-62
2024/02/08 00:47:28;;;;;;;28.52;21.15;;;;;;;3.04;70.32;92957.47;523644;28;789;-62
2024/02/08 00:47:43;;;;;;;26.50;19.95;;;;;;;3.06;70.32;92958.44;523639;28;922;-62
2024/02/08 00:47:59;;;;;;;26.40;19.58;;;;;;;3.13;69.98;92959.13;523616;28;820;-62
2024/02/08 00:48:14;;;;;;;26.07;19.40;;;;;;;3.15;70.59;92960.09;523572;28;782;-63
2024/02/08 00:48:30;;;;;;;25.10;19.35;;;;;;;3.18;70.39;92955.59;523633;28;935;-62
2024/02/08 00:48:45;;;;;;;27.40;19.70;;;;;;;3.20;70.70;92956.56;523730;28;807;-62
2024/02/08 00:49:01;;;;;;;26.00;18.52;;;;;;;3.23;70.07;92961.00;523615;28;812;-62
2024/02/08 00:49:16;;;;;;;25.23;18.47;;;;;;;3.26;70.29;92961.97;523743;28;769;-62
2024/02/08 00:49:32;;;;;;;25.00;18.27;;;;;;;3.27;70.12;92958.72;523574;28;836;-63
2024/02/08 00:49:48;;;;;;;25.83;17.30;;;;;;;3.30;70.33;92960.41;523635;28;773;-62
2024/02/08 00:50:05;;;;;;;24.48;15.80;;;;;;;3.32;70.37;92963.38;523658;28;831;-62
2024/02/08 00:50:21;;;;;;;20.83;14.63;;;;;;;3.34;70.15;92960.13;523605;28;906;-62
2024/02/08 00:50:36;;;;;;;20.00;14.73;;;;;;;3.37;69.39;92959.84;523719;28;831;-63
2024/02/08 00:50:53;;;;;;;19.90;14.55;;;;;;;3.40;69.89;92960.81;523592;28;769;-62
2024/02/08 00:51:10;;;;;;;20.45;14.25;;;;;;;3.40;70.16;92958.81;523618;28;927;-62
2024/02/08 00:51:25;;;;;;;18.58;13.48;;;;;;;3.40;69.02;92961.53;523648;28;837;-62
2024/02/08 00:51:40;;;;;;;16.63;12.75;;;;;;;3.39;69.08;92960.06;523554;28;1910;-62
2024/02/08 00:51:56;;;;;;;18.27;12.97;;;;;;;3.36;69.05;92963.06;523601;28;765;-62
2024/02/08 00:52:12;;;;;;;20.10;13.43;;;;;;;3.36;68.80;92958.34;523627;28;793;-62
2024/02/08 00:52:28;;;;;;;18.43;13.30;;;;;;;3.37;68.63;92961.84;523561;28;780;-62
2024/02/08 00:52:43;;;;;;;17.67;13.38;;;;;;;3.24;68.68;92935.19;523708;28;832;-63
2024/02/08 00:53:00;;;;;;;19.13;13.10;;;;;;;3.39;68.73;92964.78;523723;28;851;-62
2024/02/08 00:53:15;;;;;;;19.02;12.32;;;;;;;3.42;68.72;92958.31;523678;28;839;-62
2024/02/08 00:53:31;;;;;;;18.40;12.20;;;;;;;3.44;68.77;92958.53;523599;28;777;-61
2024/02/08 00:53:47;;;;;;;18.55;12.73;;;;;;;3.46;68.99;92961.47;523618;28;1044;-62
2024/02/08 00:54:02;;;;;;;17.17;12.73;;;;;;;3.48;68.51;92958.97;523620;28;778;-62
2024/02/08 00:54:18;;;;;;;17.67;12.65;;;;;;;3.51;68.83;92957.97;523612;28;979;-62
2024/02/08 00:54:35;;;;;;;20.33;12.67;;;;;;;3.52;68.56;92954.69;523588;28;877;-62
2024/02/08 00:54:51;;;;;;;20.10;12.32;;;;;;;3.54;68.28;92956.91;523615;28;861;-62
2024/02/08 00:55:06;;;;;;;18.35;11.73;;;;;;;3.56;68.06;92962.59;523655;28;895;-62
2024/02/08 00:55:22;;;;;;;18.30;11.75;;;;;;;3.57;68.07;92956.59;523630;28;797;-62
2024/02/08 00:55:37;;;;;;;16.92;11.43;;;;;;;3.60;68.46;92957.56;523798;28;877;-62
2024/02/08 00:55:53;;;;;;;14.57;10.73;;;;;;;3.60;68.25;92960.31;523795;28;835;-62
2024/02/08 00:56:12;;;;;;;12.73;9.82;;;;;;;3.60;67.11;92960.31;523854;28;844;-62
2024/02/08 00:56:28;;;;;;;13.82;9.93;;;;;;;3.61;67.25;92959.81;523779;28;905;-62
2024/02/08 00:56:43;;;;;;;13.65;10.05;;;;;;;3.61;67.30;92962.53;523756;28;918;-63
2024/02/08 00:56:59;;;;;;;13.57;10.03;;;;;;;3.63;67.24;92960.03;523858;28;806;-63
2024/02/08 00:57:15;;;;;;;11.88;9.27;;;;;;;3.65;67.70;92959.50;523817;28;867;-63
2024/02/08 00:57:32;;;;;;;11.33;8.60;;;;;;;3.66;67.14;92961.00;523807;28;829;-62
2024/02/08 00:57:48;;;;;;;11.65;8.98;;;;;;;3.66;66.79;92961.72;523764;28;947;-62
2024/02/08 00:58:03;;;;;;;12.03;9.10;;;;;;;3.67;66.90;92962.44;523663;28;808;-63
2024/02/08 00:58:19;;;;;;;12.65;8.75;;;;;;;3.68;66.83;92963.94;523836;28;792;-62
2024/02/08 00:58:34;;;;;;;13.47;8.43;;;;;;;3.69;67.34;92962.66;523799;28;899;-62
2024/02/08 00:58:49;;;;;;;13.32;8.70;;;;;;;3.66;66.82;92961.72;523873;28;756;-62
2024/02/08 00:59:05;;;;;;;14.87;9.80;;;;;;;3.66;66.87;92963.72;523739;28;1211;-63
2024/02/08 00:59:22;;;;;;;14.95;9.77;;;;;;;3.65;66.90;92959.50;523733;28;772;-63
2024/02/08 00:59:37;;;;;;;13.13;9.90;;;;;;;3.41;66.53;92927.56;523851;28;919;-62
2024/02/08 00:59:53;;;;;;;13.90;10.00;;;;;;;3.64;66.80;92961.47;523755;28;915;-63
2024/02/08 01:00:09;;;;;;;12.07;8.90;;;;;;;3.59;66.92;92959.59;523810;28;819;-63
2024/02/08 01:00:25;;;;;;;10.75;8.40;;;;;;;3.51;67.24;92960.69;523801;28;753;-63
2024/02/08 01:00:40;;;;;;;10.37;8.23;;;;;;;3.44;67.58;92959.28;523729;28;958;-63
2024/02/08 01:00:55;;;;;;;10.43;8.00;;;;;;;3.41;67.37;92954.09;523796;28;827;-63
2024/02/08 01:01:11;;;;;;;11.83;8.60;;;;;;;3.37;67.81;92948.94;523802;28;994;-63
2024/02/08 01:01:27;;;;;;;12.93;9.30;;;;;;;3.36;67.36;92952.91;523804;28;914;-62
2024/02/08 01:01:42;;;;;;;12.85;9.13;;;;;;;3.37;67.45;92956.38;523858;28;936;-63
2024/02/08 01:01:58;;;;;;;11.97;8.57;;;;;;;3.36;67.74;92955.63;523802;28;827;-62
2024/02/08 01:02:13;;;;;;;13.27;9.30;;;;;;;3.32;68.08;92957.16;523738;28;926;-62
2024/02/08 01:02:29;;;;;;;17.40;12.30;;;;;;;3.29;68.17;92960.94;523786;28;843;-62
2024/02/08 01:02:44;;;;;;;18.42;13.00;;;;;;;3.28;68.37;92954.75;523855;28;760;-62
2024/02/08 01:03:00;;;;;;;18.20;12.67;;;;;;;3.28;68.08;92960.19;523755;28;776;-62
2024/02/08 01:03:15;;;;;;;17.52;12.95;;;;;;;3.29;67.64;92958.94;523895;28;792;-63
2024/02/08 01:03:31;;;;;;;16.23;12.43;;;;;;;3.30;68.04;92956.94;523706;28;981;-62
2024/02/08 01:03:46;;;;;;;15.57;12.20;;;;;;;3.32;68.38;92957.16;523859;28;843;-62
2024/02/08 01:04:02;;;;;;;16.60;11.15;;;;;;;3.34;68.06;92958.13;523673;28;1120;-63
2024/02/08 01:04:21;;;;;;;17.40;10.13;;;;;;;3.35;68.17;92959.63;523824;28;843;-62
2024/02/08 01:04:36;;;;;;;13.63;9.55;;;;;;;3.38;68.18;92960.59;523820;28;844;-62
2024/02/08 01:04:52;;;;;;;12.07;9.05;;;;;;;3.39;67.97;92962.81;524405;28;1235;-62
2024/02/08 01:05:08;;;;;;;12.77;9.38;;;;;;;3.37;68.09;92959.84;525761;28;989;-62
2024/02/08 01:05:23;;;;;;;13.63;10.00;;;;;;;3.33;68.02;92959.41;525920;28;777;-62
2024/02/08 01:05:38;;;;;;;13.80;10.52;;;;;;;3.27;68.12;92958.72;525869;28;785;-62
2024/02/08 01:05:54;;;;;;;14.27;10.40;;;;;;;3.23;68.06;92969.16;525776;28;1100;-62
2024/02/08 01:06:09;;;;;;;14.02;10.00;;;;;;;3.23;68.61;92960.28;525866;28;840;-62
2024/02/08 01:06:26;;;;;;;13.90;10.30;;;;;;;3.22;68.34;92958.78;525956;28;780;-62
2024/02/08 01:06:41;;;;;;;13.82;10.30;;;;;;;3.11;68.58;92959.66;525873;28;887;-62
2024/02/08 01:06:58;;;;;;;14.30;10.40;;;;;;;3.07;68.75;92956.47;525906;28;888;-63
2024/02/08 01:07:13;;;;;;;15.18;10.65;;;;;;;3.04;69.06;92962.94;525922;28;820;-63
2024/02/08 01:07:31;;;;;;;15.50;10.67;;;;;;;3.00;69.66;92960.50;525874;28;824;-62
2024/02/08 01:07:47;;;;;;;14.30;10.27;;;;;;;2.98;69.34;92954.09;525941;28;823;-62
2024/02/08 01:08:03;;;;;;;12.68;10.07;;;;;;;2.97;69.83;92958.78;525851;28;753;-62
2024/02/08 01:08:18;;;;;;;15.45;10.80;;;;;;;2.98;69.39;92968.47;525921;28;761;-62
2024/02/08 01:08:34;;;;;;;19.40;11.53;;;;;;;2.99;69.48;92959.00;525916;28;835;-62
2024/02/08 01:08:50;;;;;;;19.38;11.98;;;;;;;3.01;69.86;92958.53;525847;28;848;-62
2024/02/08 01:09:07;;;;;;;19.83;12.48;;;;;;;2.92;69.37;92948.66;525852;28;901;-62
2024/02/08 01:09:23;;;;;;;18.23;12.00;;;;;;;3.08;69.13;92960.66;525907;28;839;-62
2024/02/08 01:09:38;;;;;;;14.63;11.38;;;;;;;3.09;69.31;92959.41;525834;28;792;-62
2024/02/08 01:09:53;;;;;;;15.40;11.57;;;;;;;3.13;69.70;92961.84;525789;28;915;-62
2024/02/08 01:10:09;;;;;;;14.63;11.17;;;;;;;3.16;68.97;92960.84;525619;28;797;-62
2024/02/08 01:10:24;;;;;;;14.20;10.90;;;;;;;3.19;69.11;92962.53;525667;28;792;-62
2024/02/08 01:10:40;;;;;;;21.60;11.30;;;;;;;3.18;69.07;92971.97;525690;28;788;-62
2024/02/08 01:10:55;;;;;;;23.17;11.55;;;;;;;3.10;69.59;92966.34;525716;28;839;-62
2024/02/08 01:11:11;;;;;;;15.70;10.57;;;;;;;2.96;70.07;92967.50;525713;28;887;-62
2024/02/08 01:11:26;;;;;;;12.35;9.60;;;;;;;2.91;70.31;92965.56;525708;28;768;-62
2024/02/08 01:11:42;;;;;;;13.43;10.00;;;;;;;2.90;69.86;92962.06;525565;28;1914;-62
2024/02/08 01:11:57;;;;;;;14.80;10.90;;;;;;;2.92;70.44;92965.03;525711;28;859;-62
2024/02/08 01:12:13;;;;;;;14.48;11.15;;;;;;;2.97;70.02;92958.78;525649;28;828;-62
2024/02/08 01:12:28;;;;;;;14.00;10.55;;;;;;;3.00;70.10;92965.97;525686;28;835;-62
2024/02/08 01:12:45;;;;;;;15.10;10.20;;;;;;;3.03;70.27;92961.47;525754;28;771;-62
2024/02/08 01:13:00;;;;;;;16.38;10.38;;;;;;;3.06;70.36;92955.72;525637;28;848;-62
2024/02/08 01:13:18;;;;;;;16.33;10.40;;;;;;;3.06;70.17;92963.16;525660;28;744;-62
2024/02/08 01:13:34;;;;;;;16.15;10.55;;;;;;;3.03;70.17;92956.75;525745;28;886;-62
2024/02/08 01:13:52;;;;;;;18.40;12.63;;;;;;;3.05;70.45;92961.69;525684;28;776;-62
2024/02/08 01:14:07;;;;;;;23.48;15.30;;;;;;;3.06;70.00;92950.28;525727;28;800;-62
2024/02/08 01:14:23;;;;;;;23.03;15.30;;;;;;;3.08;70.10;92955.94;525763;28;765;-62
2024/02/08 01:14:38;;;;;;;19.33;14.23;;;;;;;3.11;69.75;92956.19;525695;28;792;-62
2024/02/08 01:14:54;;;;;;;18.60;13.93;;;;;;;3.14;69.92;92955.16;525691;28;859;-62
2024/02/08 01:15:14;;;;;;;20.00;14.95;;;;;;;3.16;69.44;92958.09;525596;28;787;-63
2024/02/08 01:15:29;;;;;;;20.00;14.73;;;;;;;3.13;69.68;92961.84;525628;28;850;-62
2024/02/08 01:15:49;;;;;;;19.10;14.50;;;;;;;3.06;69.72;92952.25;525661;28;819;-63
2024/02/08 01:16:05;;;;;;;19.90;16.00;;;;;;;3.10;69.87;92968.34;525670;28;844;-62
2024/02/08 01:16:21;;;;;;;21.25;16.77;;;;;;;3.09;69.41;92959.41;525668;28;793;-62
2024/02/08 01:16:44;;;;;;;21.13;17.30;;;;;;;3.08;69.92;92964.13;525702;28;819;-62
2024/02/08 01:16:59;;;;;;;20.25;15.45;;;;;;;3.04;69.74;92960.97;525765;28;812;-62